Time;durP1;ratioP1;P1;durP2;ratioP2;P2;SDS_P1;SDS_P2;PMS_P1;PMS_P2;Temp;Humidity;BMP_temperature;BMP_pressure;BME280_temperature;BME280_humidity;BME280_pressure;Samples;Min_cycle;Max_cycle;Signal;HPM_P1;HPM_P2
2023/03/01 00:01:29;;;;;;;1999.90;999.90;;;;;;;2.00;100.00;98692.56;5114059;27;20504;-73
2023/03/01 00:03:56;;;;;;;1999.90;999.90;;;;;;;2.05;100.00;98690.00;5114017;28;20395;-74
2023/03/01 00:06:25;;;;;;;1999.90;999.90;;;;;;;2.00;100.00;98686.34;5113897;28;20028;-74
2023/03/01 00:08:50;;;;;;;1999.90;999.90;;;;;;;1.98;100.00;98672.22;5113762;28;20131;-74
2023/03/01 00:11:19;;;;;;;1999.90;999.90;;;;;;;1.99;100.00;98673.88;5114105;28;20027;-77
2023/03/01 00:13:46;;;;;;;1999.90;999.90;;;;;;;1.97;100.00;98674.09;5113742;28;20112;-74
2023/03/01 00:16:15;;;;;;;1999.90;999.90;;;;;;;1.87;100.00;98667.59;5113601;28;20016;-75
2023/03/01 00:18:41;;;;;;;1999.90;999.90;;;;;;;1.82;100.00;98667.41;5113459;28;20032;-75
2023/03/01 00:21:06;;;;;;;1999.90;999.90;;;;;;;1.71;100.00;98674.38;5113804;28;20478;-75
2023/03/01 00:23:34;;;;;;;1999.90;999.90;;;;;;;1.71;100.00;98666.28;5113634;28;20054;-75
2023/03/01 00:25:59;;;;;;;1999.90;999.90;;;;;;;1.80;100.00;98666.81;5113454;28;20034;-75
2023/03/01 00:28:25;;;;;;;1999.90;999.90;;;;;;;1.71;100.00;98662.75;5113540;28;20106;-75
2023/03/01 00:30:50;;;;;;;1999.90;999.90;;;;;;;1.69;100.00;98660.28;5113740;28;20034;-75
2023/03/01 00:33:16;;;;;;;1999.90;999.90;;;;;;;1.81;100.00;98661.22;5113465;28;20019;-75
2023/03/01 00:35:41;;;;;;;1999.90;999.90;;;;;;;1.84;100.00;98654.53;5113431;28;20031;-75
2023/03/01 00:38:06;;;;;;;1999.90;999.90;;;;;;;1.83;100.00;98661.81;5113165;28;20385;-75
2023/03/01 00:40:34;;;;;;;1999.90;999.90;;;;;;;1.80;100.00;98658.72;5113292;28;20445;-75
2023/03/01 00:43:01;;;;;;;1999.90;999.90;;;;;;;1.75;100.00;98655.88;5113375;28;20553;-74
2023/03/01 00:45:27;;;;;;;1999.90;999.90;;;;;;;1.79;100.00;98657.06;5113890;28;20380;-76
2023/03/01 00:47:52;;;;;;;1999.90;999.90;;;;;;;1.76;100.00;98657.50;5106498;28;20028;-75
2023/03/01 00:50:18;;;;;;;1999.90;999.90;;;;;;;1.72;100.00;98657.16;5092817;28;20035;-75
2023/03/01 00:52:44;;;;;;;1999.90;999.90;;;;;;;1.65;100.00;98661.78;5108541;28;20071;-75
2023/03/01 00:55:10;;;;;;;1999.90;999.90;;;;;;;1.68;100.00;98661.31;5113292;28;20118;-75
2023/03/01 00:57:35;;;;;;;1999.90;999.90;;;;;;;1.72;100.00;98656.31;5113064;28;20027;-75
2023/03/01 01:00:01;;;;;;;1999.90;999.90;;;;;;;1.59;100.00;98649.19;5114153;28;20074;-76
2023/03/01 01:02:26;;;;;;;1999.90;999.90;;;;;;;1.50;100.00;98643.22;5113359;28;20564;-75
2023/03/01 01:04:52;;;;;;;1999.90;999.90;;;;;;;1.54;100.00;98647.13;5112649;28;20036;-75
2023/03/01 01:07:19;;;;;;;1999.90;999.90;;;;;;;1.52;100.00;98643.84;5112598;28;20031;-76
2023/03/01 01:09:45;;;;;;;1999.90;999.90;;;;;;;1.57;100.00;98643.16;5104071;28;20031;-75
2023/03/01 01:12:10;;;;;;;1999.90;999.90;;;;;;;1.48;100.00;98637.22;5092714;28;20024;-74
2023/03/01 01:14:36;;;;;;;1999.90;999.90;;;;;;;1.43;100.00;98634.38;5092587;28;20503;-75
2023/03/01 01:17:01;;;;;;;1999.90;999.90;;;;;;;1.46;100.00;98635.81;5092569;28;20073;-75
2023/03/01 01:19:27;;;;;;;1999.90;999.90;;;;;;;1.41;100.00;98620.28;5092282;28;20480;-75
2023/03/01 01:21:52;;;;;;;1999.90;999.90;;;;;;;1.54;100.00;98624.72;5092741;28;20119;-75
2023/03/01 01:24:19;;;;;;;1999.90;999.90;;;;;;;1.69;100.00;98619.84;5093547;28;20039;-75
2023/03/01 01:26:45;;;;;;;1999.90;999.90;;;;;;;1.70;100.00;98605.31;5093000;28;20019;-75
2023/03/01 01:29:11;;;;;;;1999.90;999.90;;;;;;;1.71;100.00;98615.03;5092776;28;20103;-74
2023/03/01 01:31:38;;;;;;;1999.90;999.90;;;;;;;1.72;100.00;98608.63;5092537;28;20107;-75
2023/03/01 01:34:06;;;;;;;1999.90;999.90;;;;;;;1.61;100.00;98612.03;5092569;28;20016;-75
2023/03/01 01:36:32;;;;;;;1999.90;999.90;;;;;;;1.58;100.00;98596.31;5092338;28;20497;-74
2023/03/01 01:38:58;;;;;;;1999.90;999.90;;;;;;;1.66;100.00;98593.31;5083626;28;20447;-75
2023/03/01 01:41:25;;;;;;;1999.90;999.90;;;;;;;1.72;100.00;98592.44;5082773;28;20082;-75
2023/03/01 01:44:29;;;;;;;1999.90;999.90;;;;;;;1.81;100.00;98591.09;5084926;28;20021;-74
2023/03/01 01:47:06;;;;;;;1999.90;999.90;;;;;;;1.62;100.00;98562.47;5076290;28;20067;-75
2023/03/01 01:49:44;;;;;;;1999.90;999.90;;;;;;;1.79;100.00;98590.47;5074317;28;20074;-75
2023/03/01 01:52:09;;;;;;;1999.90;999.90;;;;;;;1.74;100.00;98587.63;5091991;28;20469;-75
2023/03/01 01:54:43;;;;;;;1999.90;999.90;;;;;;;1.59;100.00;98579.09;5093609;28;20034;-75
2023/03/01 01:57:14;;;;;;;1999.90;999.90;;;;;;;1.57;100.00;98582.00;5093738;28;20032;-75
2023/03/01 01:59:43;;;;;;;1999.90;999.90;;;;;;;1.60;100.00;98583.41;5091794;28;20028;-75
2023/03/01 02:02:09;;;;;;;1999.90;999.90;;;;;;;1.45;100.00;98575.69;5091269;28;20032;-75
2023/03/01 02:04:34;;;;;;;1999.90;999.90;;;;;;;1.59;100.00;98574.53;5090822;28;20078;-74
2023/03/01 02:07:15;;;;;;;1999.90;999.90;;;;;;;1.58;100.00;98582.81;5091129;28;20032;-75
2023/03/01 02:09:47;;;;;;;1999.90;999.90;;;;;;;1.53;100.00;98577.28;5091138;28;20838;-74
2023/03/01 02:12:16;;;;;;;1999.90;999.90;;;;;;;1.50;100.00;98573.13;5091066;28;20039;-75
2023/03/01 02:14:42;;;;;;;1999.90;999.90;;;;;;;1.43;100.00;98568.88;5090722;28;20016;-75
2023/03/01 02:17:08;;;;;;;1999.90;999.90;;;;;;;1.42;100.00;98580.69;5090740;28;20085;-76
2023/03/01 02:19:44;;;;;;;1999.90;999.90;;;;;;;1.38;100.00;98560.66;5090942;28;20031;-75
2023/03/01 02:22:17;;;;;;;1999.90;999.90;;;;;;;1.43;100.00;98567.00;5090846;28;20031;-74
2023/03/01 02:25:08;;;;;;;1999.90;999.90;;;;;;;1.48;100.00;98569.84;5091058;28;20113;-75
2023/03/01 02:27:46;;;;;;;1999.90;999.90;;;;;;;1.47;100.00;98562.00;5090852;28;20433;-75
2023/03/01 02:30:14;;;;;;;1999.90;999.90;;;;;;;1.46;100.00;98555.78;5091107;28;20077;-74
2023/03/01 02:32:41;;;;;;;1999.90;999.90;;;;;;;1.37;100.00;98540.94;5090859;28;20031;-74
2023/03/01 02:35:12;;;;;;;1999.90;999.90;;;;;;;1.63;100.00;98549.81;5091327;28;20044;-75
2023/03/01 02:37:38;;;;;;;1999.90;999.90;;;;;;;1.65;100.00;98551.25;5091319;28;20449;-74
2023/03/01 02:40:11;;;;;;;1999.90;999.90;;;;;;;1.67;100.00;98554.53;5090769;28;20020;-75
2023/03/01 02:42:45;;;;;;;1999.90;999.90;;;;;;;1.58;100.00;98547.78;5090635;28;20024;-74
2023/03/01 02:45:10;;;;;;;1999.90;999.90;;;;;;;1.68;100.00;98556.19;5090771;28;20031;-75
2023/03/01 02:47:36;;;;;;;1999.90;999.90;;;;;;;1.63;100.00;98550.63;5090875;28;20028;-75
2023/03/01 02:50:01;;;;;;;1999.90;999.90;;;;;;;1.60;100.00;98545.69;5090819;28;20115;-75
2023/03/01 02:52:40;;;;;;;1999.90;999.90;;;;;;;1.65;100.00;98550.41;5091026;28;20035;-75
2023/03/01 02:55:10;;;;;;;1999.90;999.90;;;;;;;1.60;100.00;98545.69;5090904;28;20016;-75
2023/03/01 02:57:39;;;;;;;1999.90;999.90;;;;;;;1.63;100.00;98550.63;5090315;28;20028;-75
2023/03/01 03:00:08;;;;;;;1999.90;999.90;;;;;;;1.49;100.00;98546.44;5090026;28;20028;-76
2023/03/01 03:02:36;;;;;;;1999.90;999.90;;;;;;;1.57;100.00;98540.72;5090618;28;20020;-75
2023/03/01 03:05:23;;;;;;;1999.90;999.90;;;;;;;1.58;100.00;98537.00;5091268;28;20016;-75
2023/03/01 03:07:49;;;;;;;1999.90;999.90;;;;;;;1.53;100.00;98534.16;5091137;28;20101;-75
2023/03/01 03:10:19;;;;;;;1999.90;999.90;;;;;;;1.36;100.00;98530.38;5092132;28;20028;-75
2023/03/01 03:12:49;;;;;;;1999.90;999.90;;;;;;;1.40;100.00;98539.69;5093376;28;20020;-74
2023/03/01 03:15:14;;;;;;;1999.90;999.90;;;;;;;1.40;100.00;98534.28;5093304;28;20032;-74
2023/03/01 03:17:42;;;;;;;1999.90;999.90;;;;;;;1.40;100.00;98535.13;5093264;28;20380;-75
2023/03/01 03:20:11;;;;;;;1999.90;999.90;;;;;;;1.33;100.00;98526.28;5090604;28;20123;-74
2023/03/01 03:22:40;;;;;;;1999.90;999.90;;;;;;;1.41;100.00;98541.34;5090492;28;20028;-75
2023/03/01 03:25:10;;;;;;;1999.90;999.90;;;;;;;1.31;100.00;98541.00;5090678;28;20028;-74
2023/03/01 03:27:40;;;;;;;1999.90;999.90;;;;;;;1.25;100.00;98541.91;5093102;28;20025;-74
2023/03/01 03:30:08;;;;;;;1999.90;999.90;;;;;;;1.13;100.00;98533.69;5095146;28;20024;-74
2023/03/01 03:32:36;;;;;;;1999.90;999.90;;;;;;;1.17;100.00;98539.47;5095744;28;20052;-74
2023/03/01 03:35:09;;;;;;;1999.90;999.90;;;;;;;1.24;100.00;98545.63;5094655;28;20036;-75
2023/03/01 03:40:20;;;;;;;1999.90;999.90;;;;;;;1.11;100.00;98549.25;5094769;28;20105;-74
2023/03/01 03:42:45;;;;;;;1999.90;999.90;;;;;;;1.05;100.00;98533.97;5094516;28;20932;-74
2023/03/01 03:45:10;;;;;;;1999.90;999.90;;;;;;;1.12;100.00;98534.75;5094545;28;20109;-74
2023/03/01 03:47:36;;;;;;;1999.90;999.90;;;;;;;1.13;100.00;98532.91;5094213;28;20028;-74
2023/03/01 03:50:01;;;;;;;1999.90;999.90;;;;;;;1.07;100.00;98530.03;5094247;28;20391;-75
2023/03/01 03:52:26;;;;;;;1999.90;999.90;;;;;;;1.06;100.00;98539.16;5093965;28;20028;-75
2023/03/01 03:54:52;;;;;;;1999.90;999.90;;;;;;;1.00;100.00;98526.56;5094282;28;20472;-74
2023/03/01 03:57:17;;;;;;;1999.90;999.90;;;;;;;1.17;100.00;98528.69;5094053;28;20024;-74
2023/03/01 03:59:42;;;;;;;1999.90;999.90;;;;;;;1.07;100.00;98538.09;5094739;28;20039;-74
2023/03/01 04:02:08;;;;;;;1999.90;999.90;;;;;;;1.06;100.00;98533.78;5095674;28;20468;-75
2023/03/01 04:04:34;;;;;;;1999.90;999.90;;;;;;;1.04;100.00;98529.63;5096472;28;20062;-74
2023/03/01 04:06:59;;;;;;;1999.90;999.90;;;;;;;1.03;100.00;98528.00;5095263;28;20031;-74
2023/03/01 04:09:24;;;;;;;1999.90;999.90;;;;;;;0.94;100.00;98522.06;5094474;28;20087;-74
2023/03/01 04:11:50;;;;;;;1999.90;999.90;;;;;;;0.94;100.00;98530.13;5094396;28;20426;-75
2023/03/01 04:14:15;;;;;;;1999.90;999.90;;;;;;;0.82;100.00;98514.91;5094291;28;20028;-74
2023/03/01 04:16:40;;;;;;;1999.90;999.90;;;;;;;0.97;100.00;98527.00;5093768;28;20028;-73
2023/03/01 04:19:06;;;;;;;1999.90;999.90;;;;;;;0.91;100.00;98525.19;5093753;28;20105;-75
2023/03/01 04:21:31;;;;;;;1999.90;999.90;;;;;;;0.86;100.00;98530.41;5093864;28;20484;-74
2023/03/01 04:23:57;;;;;;;1999.90;999.90;;;;;;;0.87;100.00;98529.38;5093698;28;20030;-74
2023/03/01 04:26:22;;;;;;;1999.90;999.90;;;;;;;0.87;100.00;98528.56;5094190;28;20396;-75
2023/03/01 04:28:49;;;;;;;1999.90;999.90;;;;;;;0.89;100.00;98534.53;5093518;28;20015;-74
2023/03/01 04:31:18;;;;;;;1999.90;999.90;;;;;;;0.83;100.00;98544.31;5094024;28;20086;-75
2023/03/01 04:33:53;;;;;;;1999.90;999.90;;;;;;;0.86;100.00;98535.81;5093402;28;20511;-75
2023/03/01 04:36:21;;;;;;;1999.90;999.90;;;;;;;0.80;100.00;98544.75;5093246;28;20034;-74
2023/03/01 04:38:49;;;;;;;1999.90;999.90;;;;;;;0.71;100.00;98540.69;5092350;28;20408;-75
2023/03/01 04:41:17;;;;;;;1999.90;999.90;;;;;;;0.78;100.00;98540.63;5093398;28;20073;-74
2023/03/01 04:43:43;;;;;;;1999.90;999.90;;;;;;;0.72;100.00;98542.31;5093558;28;20020;-74
2023/03/01 04:46:12;;;;;;;1999.90;999.90;;;;;;;0.64;100.00;98544.44;5093303;28;20370;-74
2023/03/01 04:48:39;;;;;;;1999.90;999.90;;;;;;;0.63;100.00;98543.63;5093164;28;20036;-74
2023/03/01 04:51:05;;;;;;;1999.90;999.90;;;;;;;0.59;100.00;98547.81;5091831;28;20028;-74
2023/03/01 04:53:33;;;;;;;1999.90;999.90;;;;;;;0.55;100.00;98538.50;5093010;28;20034;-74
2023/03/01 04:55:59;;;;;;;1999.90;999.90;;;;;;;0.50;100.00;98535.66;5090206;28;20732;-75
2023/03/01 04:58:28;;;;;;;1999.90;999.90;;;;;;;0.51;100.00;98532.72;5092105;28;20032;-74
2023/03/01 05:00:54;;;;;;;1999.90;999.90;;;;;;;0.58;100.00;98539.94;5087009;28;20089;-74
2023/03/01 05:03:20;;;;;;;1999.90;999.90;;;;;;;0.56;100.00;98542.03;5072921;28;20478;-74
2023/03/01 05:05:48;;;;;;;1999.90;999.90;;;;;;;0.47;100.00;98533.41;5079113;28;20024;-74
2023/03/01 05:08:17;;;;;;;1999.90;999.90;;;;;;;0.38;100.00;98534.66;5093133;28;20052;-75
2023/03/01 05:10:51;;;;;;;1999.90;999.90;;;;;;;0.56;100.00;98542.03;5092578;28;20119;-75
2023/03/01 05:13:21;;;;;;;1999.90;999.90;;;;;;;0.62;100.00;98542.00;5092448;28;20036;-74
2023/03/01 05:16:10;;;;;;;1999.90;999.90;;;;;;;0.60;100.00;98541.34;5092095;28;20031;-75
2023/03/01 05:18:36;;;;;;;1999.90;999.90;;;;;;;0.44;100.00;98542.69;5080442;28;20218;-75
2023/03/01 05:21:08;;;;;;;1999.90;999.90;;;;;;;0.53;100.00;98544.09;5087430;28;20099;-75
2023/03/01 05:23:33;;;;;;;1999.90;999.90;;;;;;;0.52;100.00;98553.22;5092961;28;20059;-77
2023/03/01 05:26:02;;;;;;;1999.90;999.90;;;;;;;0.54;100.00;98556.50;5092275;28;20480;-74
2023/03/01 05:28:30;;;;;;;1999.90;999.90;;;;;;;0.58;100.00;98550.69;5092769;28;20036;-75
2023/03/01 05:30:56;;;;;;;1999.90;999.90;;;;;;;0.56;100.00;98550.09;5092555;28;20060;-75
2023/03/01 05:33:22;;;;;;;1999.90;999.90;;;;;;;0.58;100.00;98545.31;5092027;28;20074;-76
2023/03/01 05:35:49;;;;;;;1999.90;999.90;;;;;;;0.61;100.00;98545.72;5092314;28;20036;-76
2023/03/01 05:38:15;;;;;;;1999.90;999.90;;;;;;;0.56;100.00;98545.53;5091838;28;20032;-74
2023/03/01 05:40:43;;;;;;;1999.90;999.90;;;;;;;0.60;100.00;98552.13;5092134;28;20063;-74
2023/03/01 05:43:08;;;;;;;1999.90;999.90;;;;;;;0.59;100.00;98552.34;5092069;28;20050;-75
2023/03/01 05:45:36;;;;;;;1999.90;999.90;;;;;;;0.61;100.00;98552.94;5091941;28;20060;-75
2023/03/01 05:48:02;;;;;;;1999.90;999.90;;;;;;;0.57;100.00;98549.03;5091874;28;20039;-75
2023/03/01 05:50:29;;;;;;;1999.90;999.90;;;;;;;0.64;100.00;98552.53;5093190;28;20021;-75
2023/03/01 05:53:01;;;;;;;1999.90;999.90;;;;;;;0.66;100.00;98555.84;5074666;28;20035;-74
2023/03/01 05:55:27;;;;;;;1999.90;999.90;;;;;;;0.59;100.00;98550.50;5091648;28;20027;-78
2023/03/01 05:57:52;;;;;;;1999.90;999.90;;;;;;;0.56;100.00;98553.63;5091817;28;20081;-76
2023/03/01 06:00:21;;;;;;;1999.90;999.90;;;;;;;0.59;100.00;98560.44;5092141;28;20021;-76
2023/03/01 06:02:47;;;;;;;1999.90;999.90;;;;;;;0.57;100.00;98555.25;5091858;28;20060;-75
2023/03/01 06:05:13;;;;;;;1999.90;999.90;;;;;;;0.63;100.00;98564.34;5092048;28;20079;-77
2023/03/01 06:07:40;;;;;;;1999.90;999.90;;;;;;;0.60;100.00;98565.59;5093231;28;20036;-75
2023/03/01 06:10:07;;;;;;;1999.90;999.90;;;;;;;0.61;100.00;98572.63;5092332;28;20032;-74
2023/03/01 06:12:35;;;;;;;1999.90;999.90;;;;;;;0.67;100.00;98566.38;5093939;28;20023;-76
2023/03/01 06:15:01;;;;;;;1999.90;999.90;;;;;;;0.50;100.00;98560.66;5096173;28;20016;-76
2023/03/01 06:17:31;;;;;;;1999.90;999.90;;;;;;;0.58;100.00;98577.59;5092154;28;20085;-76
2023/03/01 06:19:56;;;;;;;1999.90;999.90;;;;;;;0.52;100.00;98573.91;5088459;28;20453;-76
2023/03/01 06:22:21;;;;;;;1999.90;999.90;;;;;;;0.54;100.00;98579.91;5090473;28;20055;-75
2023/03/01 06:24:47;;;;;;;1999.90;999.90;;;;;;;0.64;100.00;98584.81;5090410;28;20051;-75
2023/03/01 06:27:12;;;;;;;1999.90;999.90;;;;;;;0.61;100.00;98575.31;5090968;28;20107;-76
2023/03/01 06:29:37;;;;;;;1999.90;999.90;;;;;;;0.67;100.00;98571.75;5090917;28;20107;-76
2023/03/01 06:32:03;;;;;;;1999.90;999.90;;;;;;;0.75;100.00;98582.25;5090523;28;20032;-75
2023/03/01 06:34:29;;;;;;;1999.90;999.90;;;;;;;0.76;100.00;98575.00;5090304;28;20103;-74
2023/03/01 06:36:55;;;;;;;1999.90;999.90;;;;;;;0.61;100.00;98578.00;5093058;28;20024;-75
2023/03/01 06:39:20;;;;;;;1999.90;999.90;;;;;;;0.79;100.00;98580.78;5073820;28;20462;-74
2023/03/01 06:41:45;;;;;;;1999.90;999.90;;;;;;;0.74;100.00;98583.31;5092230;28;20078;-75
2023/03/01 06:44:11;;;;;;;1999.90;999.90;;;;;;;0.85;100.00;98585.28;5091703;28;20032;-75
2023/03/01 06:46:36;;;;;;;1999.90;999.90;;;;;;;0.94;100.00;98581.28;5090717;28;20016;-76
2023/03/01 06:49:04;;;;;;;1999.90;999.90;;;;;;;1.03;100.00;98589.94;5090868;28;20103;-76
2023/03/01 06:51:30;;;;;;;1999.90;999.90;;;;;;;0.90;100.00;98588.19;5089899;28;20442;-75
2023/03/01 06:53:55;;;;;;;1999.90;999.90;;;;;;;0.94;100.00;98592.06;5090791;28;20028;-75
2023/03/01 06:56:21;;;;;;;1999.90;999.90;;;;;;;1.06;100.00;98584.94;5091596;28;20017;-75
2023/03/01 06:58:46;;;;;;;1999.90;999.90;;;;;;;1.08;100.00;98588.25;5090441;28;20039;-74
2023/03/01 07:01:11;;;;;;;1999.90;999.90;;;;;;;1.11;100.00;98588.84;5090627;28;20024;-72
2023/03/01 07:03:37;;;;;;;1999.90;999.90;;;;;;;1.14;100.00;98588.41;5088919;28;20024;-75
2023/03/01 07:06:02;;;;;;;1999.90;999.90;;;;;;;1.18;100.00;98581.53;5090529;28;20039;-74
2023/03/01 07:08:28;;;;;;;1999.90;999.90;;;;;;;1.20;100.00;98588.34;5090154;28;20051;-74
2023/03/01 07:10:57;;;;;;;1999.90;999.90;;;;;;;1.33;100.00;98582.84;5093035;28;20036;-78
2023/03/01 07:13:23;;;;;;;1999.90;999.90;;;;;;;1.35;100.00;98579.91;5091899;28;20121;-75
2023/03/01 07:15:48;;;;;;;1999.90;999.90;;;;;;;1.26;100.00;98573.16;5088196;28;20491;-74
2023/03/01 07:18:13;;;;;;;1999.90;999.90;;;;;;;1.49;100.00;98581.47;5087263;28;20027;-75
2023/03/01 07:20:39;;;;;;;1999.90;999.90;;;;;;;1.39;100.00;98581.97;5089496;28;20031;-74
2023/03/01 07:23:05;;;;;;;1999.90;999.90;;;;;;;1.47;100.00;98572.78;5088760;28;20023;-74
2023/03/01 07:25:31;;;;;;;1999.90;999.90;;;;;;;1.61;100.00;98579.69;5089109;28;20101;-74
2023/03/01 07:27:58;;;;;;;1999.90;999.90;;;;;;;1.73;100.00;98574.38;5089163;28;20100;-74
2023/03/01 07:30:27;;;;;;;1999.90;999.90;;;;;;;1.86;100.00;98563.44;5089090;28;20035;-75
2023/03/01 07:32:53;;;;;;;1999.90;999.90;;;;;;;1.76;100.00;98566.66;5090347;28;20025;-74
2023/03/01 07:35:18;;;;;;;1999.90;999.90;;;;;;;1.77;100.00;98559.41;5089054;28;20025;-74
2023/03/01 07:37:43;;;;;;;1999.90;999.90;;;;;;;2.00;100.00;98551.47;5088434;28;20055;-74
2023/03/01 07:40:11;;;;;;;1999.90;999.90;;;;;;;1.94;100.00;98555.88;5085705;28;20024;-75
2023/03/01 07:42:36;;;;;;;1999.90;999.90;;;;;;;1.84;100.00;98562.84;5078968;28;20532;-75
2023/03/01 07:45:03;;;;;;;1999.90;999.90;;;;;;;1.71;100.00;98555.72;5068393;28;20123;-76
2023/03/01 07:47:28;;;;;;;1999.90;999.90;;;;;;;1.76;100.00;98549.66;5068282;28;20016;-75
2023/03/01 07:49:53;;;;;;;1999.90;999.90;;;;;;;1.61;100.00;98541.94;5068309;28;20117;-75
2023/03/01 07:52:19;;;;;;;1999.90;999.90;;;;;;;1.66;100.00;98547.47;5069539;28;20604;-74
2023/03/01 07:54:44;;;;;;;1999.90;999.90;;;;;;;1.64;100.00;98536.09;5070027;28;20013;-75
2023/03/01 07:57:10;;;;;;;1999.90;999.90;;;;;;;1.77;100.00;98541.34;5070019;28;20031;-74
2023/03/01 07:59:35;;;;;;;1999.90;999.90;;;;;;;1.89;100.00;98544.94;5070135;28;20501;-75
2023/03/01 08:02:01;;;;;;;1999.90;999.90;;;;;;;1.81;100.00;98536.34;5070183;28;20111;-74
2023/03/01 08:04:26;;;;;;;1999.90;999.90;;;;;;;1.94;100.00;98542.38;5069946;28;20435;-74
2023/03/01 08:06:52;;;;;;;1999.90;999.90;;;;;;;1.97;100.00;98533.84;5070128;28;20024;-74
2023/03/01 08:09:17;;;;;;;1999.90;999.90;;;;;;;2.12;100.00;98528.91;5070508;28;20040;-75
2023/03/01 08:11:43;;;;;;;1999.90;999.90;;;;;;;2.34;100.00;98537.34;5070842;28;20104;-75
2023/03/01 08:14:10;;;;;;;1999.90;999.90;;;;;;;2.33;100.00;98541.06;5074282;28;20028;-74
2023/03/01 08:16:35;;;;;;;1999.90;999.90;;;;;;;2.33;100.00;98545.63;5075714;28;20029;-75
2023/03/01 08:19:08;;;;;;;1999.90;999.90;;;;;;;2.28;100.00;98534.72;5076047;28;20028;-75
2023/03/01 08:21:36;;;;;;;1999.90;999.90;;;;;;;2.35;100.00;98538.16;5075703;28;20090;-75
2023/03/01 08:24:03;;;;;;;1999.90;999.90;;;;;;;2.29;100.00;98542.56;5074652;28;20078;-75
2023/03/01 08:26:29;;;;;;;1999.90;999.90;;;;;;;2.36;100.00;98534.38;5074934;28;20025;-75
2023/03/01 08:28:55;;;;;;;1999.90;999.90;;;;;;;2.36;100.00;98537.91;5078681;28;20457;-76
2023/03/01 08:31:35;;;;;;;1999.90;999.90;;;;;;;2.31;100.00;98526.16;5075250;28;20013;-75
2023/03/01 08:34:02;;;;;;;1999.90;999.90;;;;;;;2.32;100.00;98536.72;5073405;28;20036;-74
2023/03/01 08:36:35;;;;;;;1999.90;999.90;;;;;;;2.39;100.00;98539.31;5073195;28;20020;-77
2023/03/01 08:39:01;;;;;;;1999.90;999.90;;;;;;;2.35;100.00;98538.16;5073104;28;20062;-75
2023/03/01 08:41:27;;;;;;;1999.90;999.90;;;;;;;2.42;100.00;98522.69;5073440;28;20037;-75
2023/03/01 08:43:58;;;;;;;1999.90;999.90;;;;;;;2.44;100.00;98513.31;5073390;28;20381;-76
2023/03/01 08:46:24;;;;;;;1999.90;999.90;;;;;;;2.47;100.00;98517.44;5073059;28;20036;-75
2023/03/01 08:48:49;;;;;;;1999.90;999.90;;;;;;;2.52;100.00;98509.44;5073149;28;20021;-74
2023/03/01 08:51:17;;;;;;;1999.90;999.90;;;;;;;2.50;100.00;98520.50;5074144;28;20024;-75
2023/03/01 08:53:43;;;;;;;1999.90;999.90;;;;;;;2.46;100.00;98511.19;5073788;28;20029;-74
2023/03/01 08:56:09;;;;;;;1999.90;999.90;;;;;;;2.50;100.00;98498.06;5072772;28;20025;-75
2023/03/01 08:58:35;;;;;;;1999.90;999.90;;;;;;;2.52;100.00;98494.09;5072635;28;20048;-75
2023/03/01 09:01:06;;;;;;;1999.90;999.90;;;;;;;2.49;100.00;98508.03;5072686;28;20025;-76
2023/03/01 09:03:31;;;;;;;1999.90;999.90;;;;;;;2.46;100.00;98502.28;5072900;28;20024;-74
2023/03/01 09:06:01;;;;;;;1999.90;999.90;;;;;;;2.46;100.00;98502.28;5072761;28;20535;-76
2023/03/01 09:08:26;;;;;;;1999.90;999.90;;;;;;;2.44;100.00;98499.00;5072392;28;20378;-76
2023/03/01 09:10:52;;;;;;;1999.90;999.90;;;;;;;2.44;100.00;98493.59;5071463;28;20070;-77
2023/03/01 09:13:17;;;;;;;1999.90;999.90;;;;;;;2.54;100.00;98500.06;5072661;28;20056;-76
2023/03/01 09:15:42;;;;;;;1999.90;999.90;;;;;;;2.60;100.00;98499.13;5072748;28;20032;-77
2023/03/01 09:18:08;;;;;;;1999.90;999.90;;;;;;;2.54;100.00;98491.13;5072394;28;20478;-76
2023/03/01 09:20:33;;;;;;;1999.90;999.90;;;;;;;2.67;100.00;98499.03;5072370;28;20386;-77
2023/03/01 09:22:59;;;;;;;1999.90;999.90;;;;;;;2.70;100.00;98512.09;5072381;28;20103;-76
2023/03/01 09:25:24;;;;;;;1999.90;999.90;;;;;;;2.72;100.00;98523.50;5072146;28;20024;-76
2023/03/01 09:27:54;;;;;;;1999.90;999.90;;;;;;;2.66;100.00;98527.91;5072617;28;20112;-77
2023/03/01 09:30:20;;;;;;;1999.90;999.90;;;;;;;2.56;100.00;98529.56;5072192;28;20481;-76
2023/03/01 09:32:46;;;;;;;1999.90;999.90;;;;;;;2.52;100.00;98518.38;5072100;28;20064;-76
2023/03/01 09:35:11;;;;;;;1999.90;999.90;;;;;;;2.64;100.00;98526.50;5072289;28;20052;-76
2023/03/01 09:37:37;;;;;;;1999.90;999.90;;;;;;;2.59;100.00;98523.69;5071921;28;20066;-77
2023/03/01 09:40:07;;;;;;;1999.90;999.90;;;;;;;2.66;100.00;98536.03;5072004;28;20056;-76
2023/03/01 09:42:34;;;;;;;1999.90;999.90;;;;;;;2.61;100.00;98538.59;5071591;28;20067;-77
2023/03/01 09:45:38;;;;;;;1999.90;999.90;;;;;;;2.73;100.00;98530.53;5072614;28;20025;-76
2023/03/01 09:48:05;;;;;;;1999.90;999.90;;;;;;;2.80;100.00;98525.03;5070520;28;20044;-76
2023/03/01 09:50:40;;;;;;;1999.90;999.90;;;;;;;2.80;100.00;98511.53;5071779;28;20048;-76
2023/03/01 09:53:23;;;;;;;1999.90;999.90;;;;;;;2.81;100.00;98516.72;5071762;28;20107;-76
2023/03/01 09:56:00;;;;;;;1999.90;999.90;;;;;;;2.89;100.00;98524.47;5071667;28;20485;-77
2023/03/01 09:58:54;;;;;;;1999.90;999.90;;;;;;;2.99;100.00;98532.81;5071498;28;20028;-76
2023/03/01 10:01:48;;;;;;;1999.90;999.90;;;;;;;3.21;100.00;98512.28;5071631;28;20390;-76
2023/03/01 10:04:26;;;;;;;1999.90;999.90;;;;;;;3.26;100.00;98503.47;5071456;28;20123;-76
2023/03/01 10:07:05;;;;;;;1999.90;999.90;;;;;;;3.37;100.00;98521.56;5071523;28;20036;-78
2023/03/01 10:09:34;;;;;;;1999.90;999.90;;;;;;;3.33;100.00;98516.84;5071338;28;20047;-77
2023/03/01 10:12:02;;;;;;;1999.90;999.90;;;;;;;3.34;100.00;98515.81;5071464;28;20028;-76
2023/03/01 10:14:39;;;;;;;1999.90;999.90;;;;;;;3.48;100.00;98514.50;5071689;28;20016;-77
2023/03/01 10:17:18;;;;;;;1999.90;999.90;;;;;;;3.60;100.00;98532.38;5071272;28;20029;-76
2023/03/01 10:19:45;;;;;;;1999.90;999.90;;;;;;;3.26;100.00;98524.28;5071232;28;20038;-76
2023/03/01 10:22:31;;;;;;;1999.90;999.90;;;;;;;3.37;100.00;98528.84;5070992;28;20443;-76
2023/03/01 10:24:59;;;;;;;1999.90;999.90;;;;;;;3.52;100.00;98534.63;5071187;28;20106;-76
2023/03/01 10:27:37;;;;;;;1999.90;999.90;;;;;;;3.54;100.00;98527.91;5071120;28;20123;-75
2023/03/01 10:30:16;;;;;;;1999.90;999.90;;;;;;;3.47;100.00;98519.13;5071154;28;20028;-76
2023/03/01 10:32:43;;;;;;;1999.90;999.90;;;;;;;3.43;100.00;98520.63;5071224;28;20024;-76
2023/03/01 10:35:23;;;;;;;1999.90;999.90;;;;;;;3.49;100.00;98513.44;5071962;28;20116;-76
2023/03/01 10:38:03;;;;;;;1999.90;999.90;;;;;;;3.64;100.00;98505.66;5072656;28;20074;-76
2023/03/01 10:40:28;;;;;;;1999.90;999.90;;;;;;;3.76;100.00;98484.84;5071920;28;20024;-76
2023/03/01 10:42:58;;;;;;;1999.90;999.90;;;;;;;3.77;100.00;98490.03;5070622;28;20070;-76
2023/03/01 10:45:31;;;;;;;1999.90;999.90;;;;;;;3.89;100.00;98487.28;5070017;28;20422;-76
2023/03/01 10:48:15;;;;;;;1999.90;999.90;;;;;;;3.97;100.00;98484.22;5070849;28;20111;-76
2023/03/01 10:50:43;;;;;;;1999.90;999.90;;;;;;;3.99;100.00;98470.44;5070884;28;20477;-76
2023/03/01 10:53:24;;;;;;;1999.90;999.90;;;;;;;3.91;100.00;98465.41;5071077;28;20060;-76
2023/03/01 10:56:01;;;;;;;1999.90;999.90;;;;;;;3.68;100.00;98469.00;5070808;28;20549;-76
2023/03/01 10:58:28;;;;;;;1999.90;999.90;;;;;;;3.77;100.00;98472.97;5070644;28;20033;-76
2023/03/01 11:01:02;;;;;;;1999.90;999.90;;;;;;;3.74;100.00;98470.72;5070907;28;20111;-75
2023/03/01 11:03:30;;;;;;;1999.90;999.90;;;;;;;3.79;100.00;98460.84;5070701;28;20028;-76